sensor_id;sensor_type;location;lat;lon;timestamp;P1;durP1;ratioP1;P2;durP2;ratioP2
46551;SDS011;32278;51.810;4.712;2023-02-23T00:01:20;117.93;;;40.40;;
46551;SDS011;32278;51.810;4.712;2023-02-23T00:03:48;116.90;;;41.40;;
46551;SDS011;32278;51.810;4.712;2023-02-23T00:06:15;123.32;;;41.67;;
46551;SDS011;32278;51.810;4.712;2023-02-23T00:08:42;126.88;;;41.97;;
46551;SDS011;32278;51.810;4.712;2023-02-23T00:11:10;125.10;;;40.28;;
46551;SDS011;32278;51.810;4.712;2023-02-23T00:13:36;122.45;;;41.08;;
46551;SDS011;32278;51.810;4.712;2023-02-23T00:16:10;115.82;;;38.67;;
46551;SDS011;32278;51.810;4.712;2023-02-23T00:18:41;121.70;;;40.53;;
46551;SDS011;32278;51.810;4.712;2023-02-23T00:21:30;113.05;;;39.05;;
46551;SDS011;32278;51.810;4.712;2023-02-23T00:24:20;120.35;;;38.78;;
46551;SDS011;32278;51.810;4.712;2023-02-23T00:26:45;108.85;;;36.90;;
46551;SDS011;32278;51.810;4.712;2023-02-23T00:29:13;111.20;;;40.15;;
46551;SDS011;32278;51.810;4.712;2023-02-23T00:31:41;120.18;;;41.72;;
46551;SDS011;32278;51.810;4.712;2023-02-23T00:34:08;129.35;;;41.50;;
46551;SDS011;32278;51.810;4.712;2023-02-23T00:36:35;122.93;;;39.35;;
46551;SDS011;32278;51.810;4.712;2023-02-23T00:39:04;121.30;;;40.90;;
46551;SDS011;32278;51.810;4.712;2023-02-23T00:41:45;128.27;;;44.72;;
46551;SDS011;32278;51.810;4.712;2023-02-23T00:44:11;129.85;;;43.30;;
46551;SDS011;32278;51.810;4.712;2023-02-23T00:46:39;121.75;;;40.03;;
46551;SDS011;32278;51.810;4.712;2023-02-23T00:49:07;127.90;;;41.30;;
46551;SDS011;32278;51.810;4.712;2023-02-23T00:51:35;129.02;;;42.78;;
46551;SDS011;32278;51.810;4.712;2023-02-23T00:54:01;132.35;;;43.22;;
46551;SDS011;32278;51.810;4.712;2023-02-23T00:56:27;131.55;;;44.00;;
46551;SDS011;32278;51.810;4.712;2023-02-23T00:58:53;125.68;;;42.33;;
46551;SDS011;32278;51.810;4.712;2023-02-23T01:01:19;128.88;;;43.20;;
46551;SDS011;32278;51.810;4.712;2023-02-23T01:03:45;126.40;;;44.53;;
46551;SDS011;32278;51.810;4.712;2023-02-23T01:06:12;139.88;;;44.30;;
46551;SDS011;32278;51.810;4.712;2023-02-23T01:08:40;154.63;;;44.72;;
46551;SDS011;32278;51.810;4.712;2023-02-23T01:11:08;127.75;;;42.80;;
46551;SDS011;32278;51.810;4.712;2023-02-23T01:13:39;134.23;;;45.00;;
46551;SDS011;32278;51.810;4.712;2023-02-23T01:16:10;130.30;;;44.33;;
46551;SDS011;32278;51.810;4.712;2023-02-23T01:18:37;146.45;;;45.13;;
46551;SDS011;32278;51.810;4.712;2023-02-23T01:21:04;138.05;;;44.38;;
46551;SDS011;32278;51.810;4.712;2023-02-23T01:23:37;130.07;;;45.25;;
46551;SDS011;32278;51.810;4.712;2023-02-23T01:26:03;138.43;;;44.30;;
46551;SDS011;32278;51.810;4.712;2023-02-23T01:28:29;136.65;;;45.67;;
46551;SDS011;32278;51.810;4.712;2023-02-23T01:30:54;143.18;;;46.13;;
46551;SDS011;32278;51.810;4.712;2023-02-23T01:33:20;141.43;;;44.55;;
46551;SDS011;32278;51.810;4.712;2023-02-23T01:35:55;140.52;;;45.53;;
46551;SDS011;32278;51.810;4.712;2023-02-23T01:38:23;133.27;;;43.65;;
46551;SDS011;32278;51.810;4.712;2023-02-23T01:40:49;148.85;;;46.63;;
46551;SDS011;32278;51.810;4.712;2023-02-23T01:43:15;155.23;;;48.88;;
46551;SDS011;32278;51.810;4.712;2023-02-23T01:45:50;155.20;;;47.55;;
46551;SDS011;32278;51.810;4.712;2023-02-23T01:48:19;158.80;;;50.22;;
46551;SDS011;32278;51.810;4.712;2023-02-23T01:51:07;147.07;;;47.13;;
46551;SDS011;32278;51.810;4.712;2023-02-23T01:53:37;139.60;;;46.75;;
46551;SDS011;32278;51.810;4.712;2023-02-23T01:56:09;144.80;;;45.50;;
46551;SDS011;32278;51.810;4.712;2023-02-23T01:58:39;136.85;;;44.40;;
46551;SDS011;32278;51.810;4.712;2023-02-23T02:01:08;146.63;;;46.20;;
46551;SDS011;32278;51.810;4.712;2023-02-23T02:03:36;128.25;;;43.28;;
46551;SDS011;32278;51.810;4.712;2023-02-23T02:06:05;135.10;;;42.47;;
46551;SDS011;32278;51.810;4.712;2023-02-23T02:08:34;113.75;;;38.53;;
46551;SDS011;32278;51.810;4.712;2023-02-23T02:11:08;121.05;;;42.58;;
46551;SDS011;32278;51.810;4.712;2023-02-23T02:13:50;114.28;;;39.80;;
46551;SDS011;32278;51.810;4.712;2023-02-23T02:16:27;112.70;;;41.65;;
46551;SDS011;32278;51.810;4.712;2023-02-23T02:19:44;118.22;;;39.88;;
46551;SDS011;32278;51.810;4.712;2023-02-23T02:25:33;124.75;;;42.60;;
46551;SDS011;32278;51.810;4.712;2023-02-23T02:33:57;125.78;;;43.08;;
46551;SDS011;32278;51.810;4.712;2023-02-23T02:36:58;129.30;;;45.42;;
46551;SDS011;32278;51.810;4.712;2023-02-23T02:48:27;140.50;;;44.88;;
46551;SDS011;32278;51.810;4.712;2023-02-23T02:51:31;119.85;;;40.55;;
46551;SDS011;32278;51.810;4.712;2023-02-23T02:54:22;119.65;;;42.50;;
46551;SDS011;32278;51.810;4.712;2023-02-23T02:56:53;126.25;;;41.85;;
46551;SDS011;32278;51.810;4.712;2023-02-23T02:59:22;135.30;;;43.60;;
46551;SDS011;32278;51.810;4.712;2023-02-23T03:02:08;135.20;;;44.80;;
46551;SDS011;32278;51.810;4.712;2023-02-23T03:05:00;134.70;;;42.40;;
46551;SDS011;32278;51.810;4.712;2023-02-23T03:13:47;106.22;;;40.72;;
46551;SDS011;32278;51.810;4.712;2023-02-23T03:16:42;102.90;;;37.92;;
46551;SDS011;32278;51.810;4.712;2023-02-23T03:22:46;109.55;;;38.45;;
46551;SDS011;32278;51.810;4.712;2023-02-23T03:25:48;121.82;;;42.75;;
46551;SDS011;32278;51.810;4.712;2023-02-23T03:32:16;144.15;;;43.90;;
46551;SDS011;32278;51.810;4.712;2023-02-23T03:38:26;119.72;;;39.95;;
46551;SDS011;32278;51.810;4.712;2023-02-23T03:41:16;147.70;;;44.80;;
46551;SDS011;32278;51.810;4.712;2023-02-23T03:44:04;127.70;;;43.67;;
46551;SDS011;32278;51.810;4.712;2023-02-23T03:46:53;114.38;;;41.13;;
46551;SDS011;32278;51.810;4.712;2023-02-23T03:49:39;121.07;;;41.58;;
46551;SDS011;32278;51.810;4.712;2023-02-23T03:52:30;115.28;;;41.42;;
46551;SDS011;32278;51.810;4.712;2023-02-23T03:55:29;113.28;;;39.35;;
46551;SDS011;32278;51.810;4.712;2023-02-23T03:58:22;108.07;;;41.05;;
46551;SDS011;32278;51.810;4.712;2023-02-23T04:01:13;122.95;;;44.38;;
46551;SDS011;32278;51.810;4.712;2023-02-23T04:03:58;137.32;;;42.58;;
46551;SDS011;32278;51.810;4.712;2023-02-23T04:06:44;119.45;;;42.00;;
46551;SDS011;32278;51.810;4.712;2023-02-23T04:09:30;116.35;;;42.67;;
46551;SDS011;32278;51.810;4.712;2023-02-23T04:12:23;124.97;;;43.33;;
46551;SDS011;32278;51.810;4.712;2023-02-23T04:18:05;132.00;;;41.97;;
46551;SDS011;32278;51.810;4.712;2023-02-23T04:20:32;128.90;;;41.53;;
46551;SDS011;32278;51.810;4.712;2023-02-23T04:22:57;160.73;;;44.03;;
46551;SDS011;32278;51.810;4.712;2023-02-23T04:25:23;115.03;;;40.20;;
46551;SDS011;32278;51.810;4.712;2023-02-23T04:27:50;127.53;;;41.30;;
46551;SDS011;32278;51.810;4.712;2023-02-23T04:30:16;131.68;;;42.40;;
46551;SDS011;32278;51.810;4.712;2023-02-23T04:32:44;146.85;;;42.83;;
46551;SDS011;32278;51.810;4.712;2023-02-23T04:35:10;120.32;;;40.50;;
46551;SDS011;32278;51.810;4.712;2023-02-23T04:37:37;107.25;;;38.80;;
46551;SDS011;32278;51.810;4.712;2023-02-23T04:40:03;128.82;;;40.78;;
46551;SDS011;32278;51.810;4.712;2023-02-23T04:42:30;123.25;;;40.88;;
46551;SDS011;32278;51.810;4.712;2023-02-23T04:44:55;111.70;;;38.95;;
46551;SDS011;32278;51.810;4.712;2023-02-23T04:47:21;118.25;;;38.15;;
46551;SDS011;32278;51.810;4.712;2023-02-23T04:49:47;117.05;;;37.85;;
46551;SDS011;32278;51.810;4.712;2023-02-23T04:52:12;123.07;;;41.83;;
46551;SDS011;32278;51.810;4.712;2023-02-23T04:54:38;127.30;;;40.47;;
46551;SDS011;32278;51.810;4.712;2023-02-23T04:57:05;145.52;;;44.17;;
46551;SDS011;32278;51.810;4.712;2023-02-23T04:59:31;131.13;;;40.95;;
46551;SDS011;32278;51.810;4.712;2023-02-23T05:01:58;120.55;;;39.58;;
46551;SDS011;32278;51.810;4.712;2023-02-23T05:04:23;127.53;;;41.80;;
46551;SDS011;32278;51.810;4.712;2023-02-23T05:06:49;114.35;;;40.40;;
46551;SDS011;32278;51.810;4.712;2023-02-23T05:09:14;138.80;;;43.20;;
46551;SDS011;32278;51.810;4.712;2023-02-23T05:11:40;107.40;;;37.50;;
46551;SDS011;32278;51.810;4.712;2023-02-23T05:14:06;131.57;;;41.05;;
46551;SDS011;32278;51.810;4.712;2023-02-23T05:16:33;113.40;;;39.13;;
46551;SDS011;32278;51.810;4.712;2023-02-23T05:18:58;114.72;;;39.08;;
46551;SDS011;32278;51.810;4.712;2023-02-23T05:21:24;128.27;;;41.97;;
46551;SDS011;32278;51.810;4.712;2023-02-23T05:23:49;110.90;;;40.28;;
46551;SDS011;32278;51.810;4.712;2023-02-23T05:26:15;108.30;;;37.85;;
46551;SDS011;32278;51.810;4.712;2023-02-23T05:28:41;118.63;;;41.25;;
46551;SDS011;32278;51.810;4.712;2023-02-23T05:31:07;106.43;;;39.85;;
46551;SDS011;32278;51.810;4.712;2023-02-23T05:33:33;124.57;;;40.50;;
46551;SDS011;32278;51.810;4.712;2023-02-23T05:36:06;129.68;;;44.30;;
46551;SDS011;32278;51.810;4.712;2023-02-23T05:38:33;115.90;;;41.33;;
46551;SDS011;32278;51.810;4.712;2023-02-23T05:41:03;107.30;;;38.58;;
46551;SDS011;32278;51.810;4.712;2023-02-23T05:43:29;126.03;;;41.35;;
46551;SDS011;32278;51.810;4.712;2023-02-23T05:45:54;126.47;;;41.38;;
46551;SDS011;32278;51.810;4.712;2023-02-23T05:48:20;127.95;;;40.33;;
46551;SDS011;32278;51.810;4.712;2023-02-23T05:50:46;121.72;;;40.20;;
46551;SDS011;32278;51.810;4.712;2023-02-23T05:53:12;135.40;;;40.33;;
46551;SDS011;32278;51.810;4.712;2023-02-23T05:55:37;124.45;;;39.67;;
46551;SDS011;32278;51.810;4.712;2023-02-23T05:58:03;124.57;;;41.03;;
46551;SDS011;32278;51.810;4.712;2023-02-23T06:00:28;114.85;;;39.88;;
46551;SDS011;32278;51.810;4.712;2023-02-23T06:02:54;113.65;;;38.45;;
46551;SDS011;32278;51.810;4.712;2023-02-23T06:05:20;131.82;;;41.90;;
46551;SDS011;32278;51.810;4.712;2023-02-23T06:07:45;128.43;;;41.70;;
46551;SDS011;32278;51.810;4.712;2023-02-23T06:10:12;126.80;;;40.47;;
46551;SDS011;32278;51.810;4.712;2023-02-23T06:12:38;113.25;;;39.42;;
46551;SDS011;32278;51.810;4.712;2023-02-23T06:15:04;115.70;;;38.70;;
46551;SDS011;32278;51.810;4.712;2023-02-23T06:17:30;122.78;;;39.22;;
46551;SDS011;32278;51.810;4.712;2023-02-23T06:19:56;116.10;;;38.70;;
46551;SDS011;32278;51.810;4.712;2023-02-23T06:22:22;136.75;;;41.78;;
46551;SDS011;32278;51.810;4.712;2023-02-23T06:24:48;130.77;;;39.13;;
46551;SDS011;32278;51.810;4.712;2023-02-23T06:27:13;109.55;;;37.88;;
46551;SDS011;32278;51.810;4.712;2023-02-23T06:29:39;105.63;;;36.53;;
46551;SDS011;32278;51.810;4.712;2023-02-23T06:32:05;105.40;;;38.72;;
46551;SDS011;32278;51.810;4.712;2023-02-23T06:34:31;105.40;;;37.35;;
46551;SDS011;32278;51.810;4.712;2023-02-23T06:36:58;100.65;;;35.90;;
46551;SDS011;32278;51.810;4.712;2023-02-23T06:39:23;108.97;;;37.63;;
46551;SDS011;32278;51.810;4.712;2023-02-23T06:41:49;113.40;;;39.75;;
46551;SDS011;32278;51.810;4.712;2023-02-23T06:44:15;115.75;;;38.55;;
46551;SDS011;32278;51.810;4.712;2023-02-23T06:46:40;126.78;;;39.30;;
46551;SDS011;32278;51.810;4.712;2023-02-23T06:49:06;124.13;;;38.50;;
46551;SDS011;32278;51.810;4.712;2023-02-23T06:51:31;134.77;;;43.10;;
46551;SDS011;32278;51.810;4.712;2023-02-23T06:53:57;134.10;;;43.85;;
46551;SDS011;32278;51.810;4.712;2023-02-23T06:56:22;129.55;;;38.83;;
46551;SDS011;32278;51.810;4.712;2023-02-23T06:58:48;125.18;;;39.05;;
46551;SDS011;32278;51.810;4.712;2023-02-23T07:01:14;118.18;;;38.03;;
46551;SDS011;32278;51.810;4.712;2023-02-23T07:03:40;121.10;;;36.75;;
46551;SDS011;32278;51.810;4.712;2023-02-23T07:06:06;107.63;;;37.38;;
46551;SDS011;32278;51.810;4.712;2023-02-23T07:08:33;118.30;;;39.35;;
46551;SDS011;32278;51.810;4.712;2023-02-23T07:11:08;115.68;;;39.30;;
46551;SDS011;32278;51.810;4.712;2023-02-23T07:13:37;121.78;;;38.28;;
46551;SDS011;32278;51.810;4.712;2023-02-23T07:16:03;113.30;;;38.78;;
46551;SDS011;32278;51.810;4.712;2023-02-23T07:18:30;102.80;;;35.50;;
46551;SDS011;32278;51.810;4.712;2023-02-23T07:20:55;118.50;;;38.28;;
46551;SDS011;32278;51.810;4.712;2023-02-23T07:23:22;117.65;;;38.20;;
46551;SDS011;32278;51.810;4.712;2023-02-23T07:25:53;110.00;;;38.58;;
46551;SDS011;32278;51.810;4.712;2023-02-23T07:28:22;131.18;;;39.50;;
46551;SDS011;32278;51.810;4.712;2023-02-23T07:30:48;119.22;;;37.28;;
46551;SDS011;32278;51.810;4.712;2023-02-23T07:33:14;126.03;;;39.45;;
46551;SDS011;32278;51.810;4.712;2023-02-23T07:35:40;128.85;;;39.05;;
46551;SDS011;32278;51.810;4.712;2023-02-23T07:38:07;122.10;;;38.60;;
46551;SDS011;32278;51.810;4.712;2023-02-23T07:40:33;128.77;;;38.40;;
46551;SDS011;32278;51.810;4.712;2023-02-23T07:42:58;139.57;;;39.95;;
46551;SDS011;32278;51.810;4.712;2023-02-23T07:45:24;118.72;;;39.00;;
46551;SDS011;32278;51.810;4.712;2023-02-23T07:47:50;128.50;;;37.65;;
46551;SDS011;32278;51.810;4.712;2023-02-23T07:50:16;140.70;;;38.90;;
46551;SDS011;32278;51.810;4.712;2023-02-23T07:52:42;130.88;;;37.28;;
46551;SDS011;32278;51.810;4.712;2023-02-23T07:55:08;137.40;;;39.78;;
46551;SDS011;32278;51.810;4.712;2023-02-23T07:57:35;128.77;;;35.60;;
46551;SDS011;32278;51.810;4.712;2023-02-23T08:00:00;135.15;;;40.10;;
46551;SDS011;32278;51.810;4.712;2023-02-23T08:02:26;132.50;;;37.38;;
46551;SDS011;32278;51.810;4.712;2023-02-23T08:04:53;132.07;;;37.08;;
46551;SDS011;32278;51.810;4.712;2023-02-23T08:07:19;126.95;;;36.45;;
46551;SDS011;32278;51.810;4.712;2023-02-23T08:09:46;126.75;;;36.65;;
46551;SDS011;32278;51.810;4.712;2023-02-23T08:12:12;128.55;;;38.08;;
46551;SDS011;32278;51.810;4.712;2023-02-23T08:14:39;123.05;;;38.72;;
46551;SDS011;32278;51.810;4.712;2023-02-23T08:17:04;116.35;;;34.28;;
46551;SDS011;32278;51.810;4.712;2023-02-23T08:19:30;109.30;;;34.05;;
46551;SDS011;32278;51.810;4.712;2023-02-23T08:21:55;107.57;;;32.13;;
46551;SDS011;32278;51.810;4.712;2023-02-23T08:24:21;105.85;;;32.28;;
46551;SDS011;32278;51.810;4.712;2023-02-23T08:26:47;101.93;;;31.27;;
46551;SDS011;32278;51.810;4.712;2023-02-23T08:29:14;96.65;;;30.83;;
46551;SDS011;32278;51.810;4.712;2023-02-23T08:31:40;100.13;;;30.10;;
46551;SDS011;32278;51.810;4.712;2023-02-23T08:34:06;95.15;;;28.60;;
46551;SDS011;32278;51.810;4.712;2023-02-23T08:36:31;100.93;;;29.98;;
46551;SDS011;32278;51.810;4.712;2023-02-23T08:38:57;106.10;;;30.42;;
46551;SDS011;32278;51.810;4.712;2023-02-23T08:41:24;90.20;;;29.88;;
46551;SDS011;32278;51.810;4.712;2023-02-23T08:43:51;94.10;;;30.33;;
46551;SDS011;32278;51.810;4.712;2023-02-23T08:46:17;91.70;;;29.63;;
46551;SDS011;32278;51.810;4.712;2023-02-23T08:48:44;84.63;;;28.95;;
46551;SDS011;32278;51.810;4.712;2023-02-23T08:51:11;95.60;;;29.73;;
46551;SDS011;32278;51.810;4.712;2023-02-23T08:53:38;89.28;;;28.17;;
46551;SDS011;32278;51.810;4.712;2023-02-23T08:56:05;97.28;;;29.95;;
46551;SDS011;32278;51.810;4.712;2023-02-23T08:58:31;96.57;;;30.13;;
46551;SDS011;32278;51.810;4.712;2023-02-23T09:00:58;84.20;;;27.58;;
46551;SDS011;32278;51.810;4.712;2023-02-23T09:03:24;83.20;;;26.40;;
46551;SDS011;32278;51.810;4.712;2023-02-23T09:05:52;90.00;;;29.58;;
46551;SDS011;32278;51.810;4.712;2023-02-23T09:08:18;87.03;;;27.02;;
46551;SDS011;32278;51.810;4.712;2023-02-23T09:10:45;81.03;;;26.02;;
46551;SDS011;32278;51.810;4.712;2023-02-23T09:13:10;77.50;;;26.23;;
46551;SDS011;32278;51.810;4.712;2023-02-23T09:15:37;65.80;;;23.35;;
46551;SDS011;32278;51.810;4.712;2023-02-23T09:18:04;68.75;;;24.63;;
46551;SDS011;32278;51.810;4.712;2023-02-23T09:20:30;65.57;;;23.67;;
46551;SDS011;32278;51.810;4.712;2023-02-23T09:22:56;72.85;;;24.58;;
46551;SDS011;32278;51.810;4.712;2023-02-23T09:25:22;68.43;;;23.00;;
46551;SDS011;32278;51.810;4.712;2023-02-23T09:27:49;71.13;;;24.15;;
46551;SDS011;32278;51.810;4.712;2023-02-23T09:30:15;64.47;;;22.50;;
46551;SDS011;32278;51.810;4.712;2023-02-23T09:32:44;68.90;;;23.58;;
46551;SDS011;32278;51.810;4.712;2023-02-23T09:35:11;62.88;;;21.90;;
46551;SDS011;32278;51.810;4.712;2023-02-23T09:37:38;55.13;;;20.52;;
46551;SDS011;32278;51.810;4.712;2023-02-23T09:40:03;59.05;;;19.92;;
46551;SDS011;32278;51.810;4.712;2023-02-23T09:42:33;52.47;;;19.20;;
46551;SDS011;32278;51.810;4.712;2023-02-23T09:45:16;50.47;;;18.73;;
46551;SDS011;32278;51.810;4.712;2023-02-23T09:48:08;45.25;;;17.23;;
46551;SDS011;32278;51.810;4.712;2023-02-23T09:50:41;47.65;;;16.67;;
46551;SDS011;32278;51.810;4.712;2023-02-23T09:55:48;41.78;;;15.88;;
46551;SDS011;32278;51.810;4.712;2023-02-23T10:03:48;51.38;;;17.77;;
46551;SDS011;32278;51.810;4.712;2023-02-23T10:06:14;46.92;;;16.90;;
46551;SDS011;32278;51.810;4.712;2023-02-23T10:11:32;37.05;;;14.43;;
46551;SDS011;32278;51.810;4.712;2023-02-23T10:19:59;36.95;;;14.63;;
46551;SDS011;32278;51.810;4.712;2023-02-23T10:22:42;27.20;;;10.73;;
46551;SDS011;32278;51.810;4.712;2023-02-23T10:25:11;26.08;;;10.95;;
46551;SDS011;32278;51.810;4.712;2023-02-23T10:27:43;34.63;;;12.43;;
46551;SDS011;32278;51.810;4.712;2023-02-23T10:33:34;30.75;;;10.88;;
46551;SDS011;32278;51.810;4.712;2023-02-23T10:36:04;32.67;;;11.63;;
46551;SDS011;32278;51.810;4.712;2023-02-23T10:38:38;28.58;;;11.05;;
46551;SDS011;32278;51.810;4.712;2023-02-23T10:41:04;31.15;;;12.30;;
46551;SDS011;32278;51.810;4.712;2023-02-23T10:43:30;25.63;;;10.23;;
46551;SDS011;32278;51.810;4.712;2023-02-23T10:45:56;31.50;;;11.20;;
46551;SDS011;32278;51.810;4.712;2023-02-23T10:48:23;25.85;;;10.18;;
46551;SDS011;32278;51.810;4.712;2023-02-23T10:50:55;25.17;;;9.82;;
46551;SDS011;32278;51.810;4.712;2023-02-23T10:53:29;25.35;;;10.20;;
46551;SDS011;32278;51.810;4.712;2023-02-23T10:56:09;24.50;;;9.65;;
46551;SDS011;32278;51.810;4.712;2023-02-23T10:58:41;25.70;;;10.38;;
46551;SDS011;32278;51.810;4.712;2023-02-23T11:01:10;23.33;;;9.88;;
46551;SDS011;32278;51.810;4.712;2023-02-23T11:03:44;21.42;;;9.93;;
46551;SDS011;32278;51.810;4.712;2023-02-23T11:06:34;26.10;;;10.50;;
46551;SDS011;32278;51.810;4.712;2023-02-23T11:11:56;21.25;;;9.07;;
46551;SDS011;32278;51.810;4.712;2023-02-23T11:14:27;24.40;;;10.23;;
46551;SDS011;32278;51.810;4.712;2023-02-23T11:16:54;17.60;;;9.77;;
46551;SDS011;32278;51.810;4.712;2023-02-23T11:19:42;20.20;;;9.30;;
46551;SDS011;32278;51.810;4.712;2023-02-23T11:22:07;18.63;;;9.40;;
46551;SDS011;32278;51.810;4.712;2023-02-23T11:24:47;22.48;;;9.25;;
46551;SDS011;32278;51.810;4.712;2023-02-23T11:27:23;20.23;;;9.57;;
46551;SDS011;32278;51.810;4.712;2023-02-23T11:29:51;18.42;;;7.60;;
46551;SDS011;32278;51.810;4.712;2023-02-23T11:34:47;16.92;;;7.85;;
46551;SDS011;32278;51.810;4.712;2023-02-23T11:37:44;20.38;;;8.55;;
46551;SDS011;32278;51.810;4.712;2023-02-23T11:40:24;20.27;;;8.00;;
46551;SDS011;32278;51.810;4.712;2023-02-23T11:42:55;11.63;;;6.15;;
46551;SDS011;32278;51.810;4.712;2023-02-23T11:45:31;14.40;;;6.85;;
46551;SDS011;32278;51.810;4.712;2023-02-23T11:48:03;14.98;;;6.50;;
46551;SDS011;32278;51.810;4.712;2023-02-23T11:50:33;17.10;;;7.03;;
46551;SDS011;32278;51.810;4.712;2023-02-23T11:53:11;20.85;;;8.25;;
46551;SDS011;32278;51.810;4.712;2023-02-23T11:55:43;18.05;;;8.15;;
46551;SDS011;32278;51.810;4.712;2023-02-23T12:00:54;20.77;;;8.80;;
46551;SDS011;32278;51.810;4.712;2023-02-23T12:03:28;19.45;;;7.90;;
46551;SDS011;32278;51.810;4.712;2023-02-23T12:05:57;18.17;;;7.68;;
46551;SDS011;32278;51.810;4.712;2023-02-23T12:08:27;17.63;;;8.10;;
46551;SDS011;32278;51.810;4.712;2023-02-23T12:11:02;19.50;;;7.30;;
46551;SDS011;32278;51.810;4.712;2023-02-23T12:13:38;24.98;;;7.30;;
46551;SDS011;32278;51.810;4.712;2023-02-23T12:16:19;17.70;;;7.03;;
46551;SDS011;32278;51.810;4.712;2023-02-23T12:18:59;11.70;;;5.13;;
46551;SDS011;32278;51.810;4.712;2023-02-23T12:21:52;19.25;;;6.30;;
46551;SDS011;32278;51.810;4.712;2023-02-23T12:27:25;15.02;;;5.80;;
46551;SDS011;32278;51.810;4.712;2023-02-23T12:32:28;11.07;;;5.65;;
46551;SDS011;32278;51.810;4.712;2023-02-23T12:35:15;15.07;;;5.65;;
46551;SDS011;32278;51.810;4.712;2023-02-23T12:37:48;10.77;;;5.63;;
46551;SDS011;32278;51.810;4.712;2023-02-23T12:40:21;12.30;;;5.60;;
46551;SDS011;32278;51.810;4.712;2023-02-23T12:43:04;13.65;;;5.68;;
46551;SDS011;32278;51.810;4.712;2023-02-23T12:45:52;11.93;;;3.67;;
46551;SDS011;32278;51.810;4.712;2023-02-23T12:50:59;11.00;;;4.88;;
46551;SDS011;32278;51.810;4.712;2023-02-23T12:53:31;11.73;;;5.10;;
46551;SDS011;32278;51.810;4.712;2023-02-23T12:58:45;10.95;;;5.25;;
46551;SDS011;32278;51.810;4.712;2023-02-23T13:01:29;11.07;;;5.20;;
46551;SDS011;32278;51.810;4.712;2023-02-23T13:10:19;11.30;;;5.32;;
46551;SDS011;32278;51.810;4.712;2023-02-23T13:12:59;16.25;;;4.45;;
46551;SDS011;32278;51.810;4.712;2023-02-23T13:18:11;11.07;;;4.95;;
46551;SDS011;32278;51.810;4.712;2023-02-23T13:26:29;18.15;;;5.15;;
46551;SDS011;32278;51.810;4.712;2023-02-23T13:31:41;13.27;;;6.55;;
46551;SDS011;32278;51.810;4.712;2023-02-23T13:34:10;18.30;;;6.40;;
46551;SDS011;32278;51.810;4.712;2023-02-23T13:36:48;18.63;;;7.38;;
46551;SDS011;32278;51.810;4.712;2023-02-23T13:39:26;14.85;;;5.90;;
46551;SDS011;32278;51.810;4.712;2023-02-23T13:56:01;20.10;;;8.57;;
46551;SDS011;32278;51.810;4.712;2023-02-23T13:58:50;15.80;;;7.63;;
46551;SDS011;32278;51.810;4.712;2023-02-23T14:01:39;18.15;;;7.97;;
46551;SDS011;32278;51.810;4.712;2023-02-23T14:07:12;21.67;;;8.48;;
46551;SDS011;32278;51.810;4.712;2023-02-23T14:09:45;19.45;;;7.97;;
46551;SDS011;32278;51.810;4.712;2023-02-23T14:12:22;23.30;;;8.10;;
46551;SDS011;32278;51.810;4.712;2023-02-23T14:17:58;22.25;;;9.57;;
46551;SDS011;32278;51.810;4.712;2023-02-23T14:23:12;21.88;;;8.60;;
46551;SDS011;32278;51.810;4.712;2023-02-23T14:28:38;29.48;;;10.70;;
46551;SDS011;32278;51.810;4.712;2023-02-23T14:38:49;24.58;;;9.27;;
46551;SDS011;32278;51.810;4.712;2023-02-23T14:41:28;19.52;;;8.95;;
46551;SDS011;32278;51.810;4.712;2023-02-23T14:46:47;23.25;;;10.13;;
46551;SDS011;32278;51.810;4.712;2023-02-23T14:49:27;23.27;;;9.38;;
46551;SDS011;32278;51.810;4.712;2023-02-23T14:52:00;18.95;;;8.20;;
46551;SDS011;32278;51.810;4.712;2023-02-23T14:56:59;26.30;;;10.45;;
46551;SDS011;32278;51.810;4.712;2023-02-23T14:59:28;23.60;;;9.38;;
46551;SDS011;32278;51.810;4.712;2023-02-23T15:02:05;26.70;;;10.57;;
46551;SDS011;32278;51.810;4.712;2023-02-23T15:04:35;25.85;;;10.25;;
46551;SDS011;32278;51.810;4.712;2023-02-23T15:07:03;20.75;;;9.10;;
46551;SDS011;32278;51.810;4.712;2023-02-23T15:09:32;21.90;;;10.75;;
46551;SDS011;32278;51.810;4.712;2023-02-23T15:12:19;27.48;;;10.55;;
46551;SDS011;32278;51.810;4.712;2023-02-23T15:14:50;27.05;;;9.05;;
46551;SDS011;32278;51.810;4.712;2023-02-23T15:17:20;19.80;;;9.30;;
46551;SDS011;32278;51.810;4.712;2023-02-23T15:19:49;19.40;;;9.45;;
46551;SDS011;32278;51.810;4.712;2023-02-23T15:22:22;21.13;;;9.40;;
46551;SDS011;32278;51.810;4.712;2023-02-23T15:24:50;22.48;;;9.07;;
46551;SDS011;32278;51.810;4.712;2023-02-23T15:27:16;23.27;;;10.38;;
46551;SDS011;32278;51.810;4.712;2023-02-23T15:29:48;22.27;;;9.93;;
46551;SDS011;32278;51.810;4.712;2023-02-23T15:32:18;23.90;;;10.27;;
46551;SDS011;32278;51.810;4.712;2023-02-23T15:34:46;26.95;;;10.63;;
46551;SDS011;32278;51.810;4.712;2023-02-23T15:37:14;25.80;;;9.48;;
46551;SDS011;32278;51.810;4.712;2023-02-23T15:42:13;24.98;;;10.90;;
46551;SDS011;32278;51.810;4.712;2023-02-23T15:44:42;28.77;;;11.15;;
46551;SDS011;32278;51.810;4.712;2023-02-23T15:47:17;28.55;;;10.65;;
46551;SDS011;32278;51.810;4.712;2023-02-23T15:49:46;25.83;;;11.27;;
46551;SDS011;32278;51.810;4.712;2023-02-23T15:52:13;26.17;;;11.20;;
46551;SDS011;32278;51.810;4.712;2023-02-23T15:54:51;26.48;;;10.25;;
46551;SDS011;32278;51.810;4.712;2023-02-23T15:57:27;27.48;;;10.63;;
46551;SDS011;32278;51.810;4.712;2023-02-23T15:59:58;23.58;;;10.82;;
46551;SDS011;32278;51.810;4.712;2023-02-23T16:02:25;31.77;;;11.40;;
46551;SDS011;32278;51.810;4.712;2023-02-23T16:04:53;25.15;;;11.25;;
46551;SDS011;32278;51.810;4.712;2023-02-23T16:07:22;32.67;;;12.93;;
46551;SDS011;32278;51.810;4.712;2023-02-23T16:10:17;24.98;;;10.20;;
46551;SDS011;32278;51.810;4.712;2023-02-23T16:12:43;18.83;;;8.18;;
46551;SDS011;32278;51.810;4.712;2023-02-23T16:15:23;20.98;;;8.75;;
46551;SDS011;32278;51.810;4.712;2023-02-23T16:17:57;19.50;;;8.40;;
46551;SDS011;32278;51.810;4.712;2023-02-23T16:20:33;23.27;;;8.18;;
46551;SDS011;32278;51.810;4.712;2023-02-23T16:23:05;21.40;;;7.57;;
46551;SDS011;32278;51.810;4.712;2023-02-23T16:25:40;18.90;;;6.18;;
46551;SDS011;32278;51.810;4.712;2023-02-23T16:28:08;18.13;;;6.97;;
46551;SDS011;32278;51.810;4.712;2023-02-23T16:30:40;16.75;;;4.22;;
46551;SDS011;32278;51.810;4.712;2023-02-23T16:35:46;16.10;;;5.15;;
46551;SDS011;32278;51.810;4.712;2023-02-23T16:39:00;14.88;;;5.13;;
46551;SDS011;32278;51.810;4.712;2023-02-23T16:41:00;15.50;;;4.78;;
46551;SDS011;32278;51.810;4.712;2023-02-23T16:43:27;20.55;;;5.28;;
46551;SDS011;32278;51.810;4.712;2023-02-23T16:45:55;14.07;;;4.30;;
46551;SDS011;32278;51.810;4.712;2023-02-23T16:48:21;18.23;;;4.63;;
46551;SDS011;32278;51.810;4.712;2023-02-23T16:50:48;14.85;;;4.28;;
46551;SDS011;32278;51.810;4.712;2023-02-23T16:53:14;27.17;;;6.28;;
46551;SDS011;32278;51.810;4.712;2023-02-23T16:55:53;20.00;;;3.95;;
46551;SDS011;32278;51.810;4.712;2023-02-23T16:58:22;22.30;;;4.28;;
46551;SDS011;32278;51.810;4.712;2023-02-23T17:00:49;19.55;;;4.20;;